createdAt,value
2018-12-27T00:01:13.235Z,1.30
2018-12-27T00:03:40.730Z,1.30
2018-12-27T00:06:07.539Z,1.30
2018-12-27T00:08:34.984Z,1.50
2018-12-27T00:11:01.745Z,1.23
2018-12-27T00:13:28.560Z,1.10
2018-12-27T00:15:56.042Z,1.13
2018-12-27T00:18:22.712Z,1.30
2018-12-27T00:20:49.471Z,1.10
2018-12-27T00:23:16.174Z,1.30
2018-12-27T00:25:43.836Z,1.00
2018-12-27T00:28:11.727Z,1.47
2018-12-27T00:30:38.418Z,1.20
2018-12-27T00:33:05.339Z,0.90
2018-12-27T00:35:33.242Z,1.27
2018-12-27T00:38:00.103Z,1.20
2018-12-27T00:40:27.671Z,1.13
2018-12-27T00:42:54.446Z,1.13
2018-12-27T00:45:21.237Z,1.10
2018-12-27T00:47:48.026Z,1.43
2018-12-27T00:50:14.763Z,1.20
2018-12-27T00:52:41.894Z,1.20
2018-12-27T00:55:09.668Z,1.40
2018-12-27T00:57:37.528Z,1.10
2018-12-27T01:00:04.606Z,1.30
2018-12-27T01:02:33.205Z,1.33
2018-12-27T01:04:59.983Z,0.90
2018-12-27T01:07:28.175Z,1.30
2018-12-27T01:09:56.132Z,1.40
2018-12-27T01:12:23.472Z,1.27
2018-12-27T01:14:50.551Z,1.47
2018-12-27T01:17:17.988Z,1.27
2018-12-27T01:19:47.203Z,1.37
2018-12-27T01:22:15.591Z,1.10
2018-12-27T01:24:43.069Z,1.27
2018-12-27T01:27:13.573Z,1.20
2018-12-27T01:29:42.214Z,1.20
2018-12-27T01:32:11.094Z,1.30
2018-12-27T01:34:39.474Z,1.30
2018-12-27T01:37:07.298Z,1.53
2018-12-27T01:39:34.297Z,1.60
2018-12-27T01:42:02.581Z,1.80
2018-12-27T01:44:31.498Z,1.00
2018-12-27T01:47:00.611Z,1.50
2018-12-27T01:49:28.212Z,0.90
2018-12-27T01:51:55.215Z,1.33
2018-12-27T01:54:22.665Z,1.60
2018-12-27T01:56:49.552Z,1.10
2018-12-27T01:59:17.385Z,1.60
2018-12-27T02:01:45.277Z,1.73
2018-12-27T02:04:12.999Z,1.53
2018-12-27T02:06:40.455Z,1.47
2018-12-27T02:09:08.098Z,1.80
2018-12-27T02:11:37.433Z,1.90
2018-12-27T02:14:07.714Z,1.70
2018-12-27T02:16:36.332Z,1.60
2018-12-27T02:19:04.408Z,1.70
2018-12-27T02:21:31.411Z,1.40
2018-12-27T02:23:59.284Z,1.73
2018-12-27T02:26:28.773Z,1.80
2018-12-27T02:28:58.485Z,1.57
2018-12-27T02:31:26.298Z,1.73
2018-12-27T02:33:53.911Z,1.53
2018-12-27T02:36:21.608Z,1.47
2018-12-27T02:38:51.156Z,1.40
2018-12-27T02:41:18.898Z,1.57
2018-12-27T02:43:48.015Z,1.53
2018-12-27T02:46:15.762Z,1.43
2018-12-27T02:48:43.058Z,1.50
2018-12-27T02:51:11.313Z,1.50
2018-12-27T02:53:38.884Z,1.40
2018-12-27T02:56:06.406Z,1.37
2018-12-27T02:58:34.070Z,1.43
2018-12-27T03:01:01.226Z,1.87
2018-12-27T03:03:28.644Z,1.47
2018-12-27T03:05:56.972Z,1.67
2018-12-27T03:08:24.615Z,1.40
2018-12-27T03:10:52.908Z,1.40
2018-12-27T03:13:20.386Z,1.50
2018-12-27T03:15:48.658Z,1.60
2018-12-27T03:18:15.980Z,1.50
2018-12-27T03:20:43.763Z,1.27
2018-12-27T03:23:11.460Z,1.50
2018-12-27T03:25:38.455Z,1.60
2018-12-27T03:28:06.479Z,1.90
2018-12-27T03:30:34.259Z,1.33
2018-12-27T03:33:03.152Z,1.17
2018-12-27T03:35:31.445Z,1.57
2018-12-27T03:37:58.815Z,1.53
2018-12-27T03:40:26.038Z,1.50
2018-12-27T03:42:54.982Z,1.40
2018-12-27T03:45:22.741Z,1.40
2018-12-27T03:47:51.920Z,1.57
2018-12-27T03:50:20.027Z,1.60
2018-12-27T03:52:49.608Z,1.30
2018-12-27T03:55:17.878Z,1.53
2018-12-27T03:57:45.511Z,1.53
2018-12-27T04:00:12.959Z,1.30
2018-12-27T04:02:40.144Z,1.17
2018-12-27T04:05:07.573Z,1.40
2018-12-27T04:07:34.381Z,1.30
2018-12-27T04:10:02.718Z,1.50
2018-12-27T04:12:29.997Z,1.20
2018-12-27T04:14:56.985Z,1.27
2018-12-27T04:17:24.274Z,1.23
2018-12-27T04:19:51.676Z,1.40
2018-12-27T04:22:18.881Z,1.70
2018-12-27T04:24:47.244Z,1.80
2018-12-27T04:27:14.491Z,1.80
2018-12-27T04:29:42.733Z,1.63
2018-12-27T04:32:09.735Z,2.00
2018-12-27T04:34:37.195Z,1.97
2018-12-27T04:37:04.984Z,1.63
2018-12-27T04:39:32.458Z,1.67
2018-12-27T04:41:59.711Z,1.50
2018-12-27T04:44:27.579Z,1.47
2018-12-27T04:46:55.091Z,1.70
2018-12-27T04:49:23.472Z,1.70
2018-12-27T04:51:51.598Z,1.37
2018-12-27T04:54:19.484Z,1.80
2018-12-27T04:56:46.717Z,1.50
2018-12-27T04:59:14.558Z,1.57
2018-12-27T05:01:42.371Z,1.53
2018-12-27T05:04:17.810Z,2.20
2018-12-27T05:06:37.709Z,1.40
2018-12-27T05:09:06.035Z,1.70
2018-12-27T05:11:33.269Z,1.67
2018-12-27T05:14:01.979Z,1.70
2018-12-27T05:16:29.341Z,1.60
2018-12-27T05:18:57.142Z,1.27
2018-12-27T05:21:24.498Z,1.40
2018-12-27T05:23:51.398Z,1.50
2018-12-27T05:26:18.623Z,1.40
2018-12-27T05:28:45.356Z,1.40
2018-12-27T05:31:13.540Z,1.13
2018-12-27T05:33:41.644Z,1.33
2018-12-27T05:36:08.575Z,1.67
2018-12-27T05:38:35.635Z,1.00
2018-12-27T05:41:02.726Z,1.60
2018-12-27T05:43:29.778Z,1.53
2018-12-27T05:45:56.755Z,1.60
2018-12-27T05:48:24.263Z,1.80
2018-12-27T05:50:51.506Z,1.80
2018-12-27T05:53:20.073Z,1.70
2018-12-27T05:55:48.115Z,1.80
2018-12-27T05:58:15.201Z,1.90
2018-12-27T06:00:42.954Z,1.93
2018-12-27T06:03:09.922Z,1.60
2018-12-27T06:05:37.036Z,1.90
2018-12-27T06:08:04.253Z,1.40
2018-12-27T06:10:32.331Z,1.50
2018-12-27T06:12:59.654Z,1.53
2018-12-27T06:15:27.393Z,1.40
2018-12-27T06:17:55.006Z,1.23
2018-12-27T06:20:22.352Z,1.37
2018-12-27T06:22:49.300Z,1.10
2018-12-27T06:25:16.868Z,1.20
2018-12-27T06:27:44.160Z,1.00
2018-12-27T06:30:12.073Z,1.00
2018-12-27T06:32:39.310Z,1.10
2018-12-27T06:35:07.056Z,0.90
2018-12-27T06:37:34.146Z,1.00
2018-12-27T06:40:01.548Z,0.90
2018-12-27T06:42:29.049Z,1.00
2018-12-27T06:44:57.243Z,1.00
2018-12-27T06:47:24.576Z,1.00
2018-12-27T06:49:52.246Z,0.93
2018-12-27T06:52:19.465Z,1.13
2018-12-27T06:54:48.446Z,1.20
2018-12-27T06:57:14.045Z,1.10
2018-12-27T06:59:41.032Z,1.10
2018-12-27T07:02:09.644Z,1.00
2018-12-27T07:04:36.690Z,1.20
2018-12-27T07:07:04.356Z,1.40
2018-12-27T07:09:32.357Z,1.90
2018-12-27T07:11:59.416Z,1.50
2018-12-27T07:14:26.520Z,1.50
2018-12-27T07:16:53.898Z,1.57
2018-12-27T07:19:23.283Z,1.40
2018-12-27T07:21:50.979Z,1.57
2018-12-27T07:24:18.839Z,1.20
2018-12-27T07:26:45.994Z,1.37
2018-12-27T07:29:14.259Z,1.33
2018-12-27T07:31:41.479Z,1.30
2018-12-27T07:34:08.423Z,0.97
2018-12-27T07:36:36.479Z,0.90
2018-12-27T07:39:03.629Z,1.20
2018-12-27T07:41:30.584Z,1.30
2018-12-27T07:43:58.127Z,1.13
2018-12-27T07:46:25.168Z,1.40
2018-12-27T07:48:52.792Z,1.40
2018-12-27T07:51:20.330Z,1.33
2018-12-27T07:53:47.196Z,1.43
2018-12-27T07:56:14.702Z,1.30
2018-12-27T07:58:42.602Z,1.37
2018-12-27T08:01:09.854Z,1.30
2018-12-27T08:03:37.949Z,1.50
2018-12-27T08:06:04.912Z,1.30
2018-12-27T08:08:31.876Z,1.40
2018-12-27T08:10:59.122Z,1.57
2018-12-27T08:13:25.987Z,1.40
2018-12-27T08:15:53.046Z,1.60
2018-12-27T08:18:20.811Z,1.60
2018-12-27T08:20:48.896Z,1.40
2018-12-27T08:23:16.946Z,1.70
2018-12-27T08:25:44.231Z,1.50
2018-12-27T08:28:11.738Z,1.50
2018-12-27T08:30:39.998Z,1.20
2018-12-27T08:33:07.571Z,1.40
2018-12-27T08:35:35.341Z,1.40
2018-12-27T08:38:02.846Z,1.80
2018-12-27T08:40:29.983Z,1.40
2018-12-27T08:42:56.956Z,1.63
2018-12-27T08:45:24.968Z,1.50
2018-12-27T08:47:53.027Z,1.63
2018-12-27T08:50:20.530Z,1.70
2018-12-27T08:52:48.695Z,1.83
2018-12-27T08:55:15.698Z,1.30
2018-12-27T08:57:42.879Z,1.40
2018-12-27T09:00:09.916Z,1.10
2018-12-27T09:02:37.714Z,1.33
2018-12-27T09:05:05.126Z,1.30
2018-12-27T09:07:32.446Z,1.40
2018-12-27T09:10:01.211Z,1.30
2018-12-27T09:12:28.219Z,1.63
2018-12-27T09:14:55.235Z,1.13
2018-12-27T09:17:22.659Z,1.50
2018-12-27T09:19:51.014Z,1.50
2018-12-27T09:22:18.445Z,1.60
2018-12-27T09:24:45.442Z,1.60
2018-12-27T09:27:13.714Z,1.43
2018-12-27T09:29:40.758Z,1.60
2018-12-27T09:32:08.146Z,1.40
2018-12-27T09:34:35.692Z,1.50
2018-12-27T09:37:02.573Z,1.20
2018-12-27T09:39:30.465Z,1.30
2018-12-27T09:41:58.440Z,1.60
2018-12-27T09:44:30.629Z,1.50
2018-12-27T09:46:58.850Z,1.47
2018-12-27T09:49:26.060Z,1.70
2018-12-27T09:51:53.318Z,1.57
2018-12-27T09:54:20.434Z,1.63
2018-12-27T09:56:47.568Z,1.77
2018-12-27T09:59:14.438Z,1.57
2018-12-27T10:01:41.934Z,1.60
2018-12-27T10:04:09.886Z,1.50
2018-12-27T10:06:38.832Z,1.60
2018-12-27T10:09:08.127Z,1.47
2018-12-27T10:11:35.328Z,1.57
2018-12-27T10:14:02.209Z,1.33
2018-12-27T10:16:30.587Z,1.33
2018-12-27T10:18:58.377Z,1.30
2018-12-27T10:21:25.754Z,1.63
2018-12-27T10:23:58.887Z,1.50
2018-12-27T10:26:30.020Z,1.30
2018-12-27T10:29:06.195Z,1.60
2018-12-27T10:31:35.339Z,1.30
2018-12-27T10:34:11.567Z,1.50
2018-12-27T10:36:50.930Z,1.33
2018-12-27T10:39:26.933Z,1.63
2018-12-27T10:42:00.307Z,1.20
2018-12-27T10:44:35.836Z,1.60
2018-12-27T10:47:11.251Z,1.10
2018-12-27T10:49:46.185Z,1.40
2018-12-27T10:52:15.609Z,1.30
2018-12-27T10:54:44.417Z,1.47
2018-12-27T10:57:11.271Z,1.20
2018-12-27T10:59:38.670Z,1.10
2018-12-27T11:02:05.807Z,1.20
2018-12-27T11:04:36.355Z,1.60
2018-12-27T11:07:13.295Z,1.33
2018-12-27T11:09:52.509Z,1.40
2018-12-27T11:12:33.851Z,1.60
2018-12-27T11:15:17.800Z,1.37
2018-12-27T11:17:56.158Z,1.60
2018-12-27T11:20:30.074Z,1.70
2018-12-27T11:23:09.497Z,1.53
2018-12-27T11:25:43.409Z,1.50
2018-12-27T11:28:19.312Z,1.43
2018-12-27T11:30:53.091Z,1.60
2018-12-27T11:33:42.015Z,1.57
2018-12-27T11:36:21.284Z,1.70
2018-12-27T11:39:01.625Z,1.90
2018-12-27T11:41:41.234Z,1.60
2018-12-27T11:44:09.323Z,1.87
2018-12-27T11:46:36.764Z,1.67
2018-12-27T11:49:04.246Z,1.40
2018-12-27T11:51:31.687Z,1.60
2018-12-27T11:53:59.925Z,1.70
2018-12-27T11:56:27.405Z,1.40
2018-12-27T11:58:55.081Z,1.47
2018-12-27T12:01:22.644Z,1.60
2018-12-27T12:03:50.361Z,1.70
2018-12-27T12:06:17.595Z,2.87
2018-12-27T12:08:45.604Z,2.43
2018-12-27T12:11:12.927Z,2.27
2018-12-27T12:13:40.210Z,1.90
2018-12-27T12:16:07.978Z,2.00
2018-12-27T12:18:36.170Z,1.90
2018-12-27T12:21:04.132Z,2.07
2018-12-27T12:23:31.751Z,1.93
2018-12-27T12:25:58.729Z,2.00
2018-12-27T12:28:26.394Z,2.10
2018-12-27T12:30:53.391Z,1.73
2018-12-27T12:33:20.293Z,1.70
2018-12-27T12:35:47.925Z,2.23
2018-12-27T12:38:15.085Z,2.17
2018-12-27T12:40:42.199Z,1.80
2018-12-27T12:43:09.857Z,1.57
2018-12-27T12:45:37.161Z,1.80
2018-12-27T12:48:04.543Z,1.70
2018-12-27T12:50:33.019Z,2.10
2018-12-27T12:53:00.175Z,1.80
2018-12-27T12:55:27.007Z,1.97
2018-12-27T12:57:53.965Z,2.43
2018-12-27T13:00:21.047Z,2.40
2018-12-27T13:02:48.788Z,2.27
2018-12-27T13:05:15.121Z,2.40
2018-12-27T13:07:42.743Z,2.30
2018-12-27T13:10:10.292Z,2.10
2018-12-27T13:12:37.069Z,2.20
2018-12-27T13:15:04.578Z,2.30
2018-12-27T13:17:31.290Z,2.30
2018-12-27T13:19:58.336Z,2.47
2018-12-27T13:22:25.277Z,2.23
2018-12-27T13:24:52.050Z,2.00
2018-12-27T13:27:19.827Z,2.50
2018-12-27T13:29:46.911Z,2.10
2018-12-27T13:32:13.884Z,2.17
2018-12-27T13:34:41.551Z,2.20
2018-12-27T13:37:08.395Z,2.30
2018-12-27T13:39:35.208Z,2.17
2018-12-27T13:42:02.335Z,2.20
2018-12-27T13:44:29.876Z,2.30
2018-12-27T13:46:56.943Z,2.03
2018-12-27T13:49:24.755Z,2.33
2018-12-27T13:51:51.525Z,2.43
2018-12-27T13:54:18.440Z,2.77
2018-12-27T13:56:46.239Z,3.47
2018-12-27T13:59:13.147Z,2.70
2018-12-27T14:01:40.268Z,2.47
2018-12-27T14:04:07.976Z,2.43
2018-12-27T14:06:34.938Z,2.60
2018-12-27T14:09:01.825Z,2.80
2018-12-27T14:11:29.458Z,3.30
2018-12-27T14:13:56.228Z,2.83
2018-12-27T14:16:23.090Z,3.00
2018-12-27T14:18:49.927Z,3.40
2018-12-27T14:21:16.786Z,3.40
2018-12-27T14:23:43.584Z,3.03
2018-12-27T14:26:11.229Z,3.33
2018-12-27T14:28:39.154Z,3.20
2018-12-27T14:31:06.092Z,3.67
2018-12-27T14:33:32.898Z,4.10
2018-12-27T14:38:52.456Z,3.70
2018-12-27T14:41:19.469Z,3.27
2018-12-27T14:43:46.509Z,3.10
2018-12-27T14:46:13.258Z,3.20
2018-12-27T14:48:40.417Z,2.90
2018-12-27T14:51:07.312Z,2.57
2018-12-27T14:53:34.515Z,2.90
2018-12-27T14:56:01.648Z,2.97
2018-12-27T14:58:28.706Z,2.90
2018-12-27T15:01:10.416Z,2.60
2018-12-27T15:03:37.894Z,2.63
2018-12-27T15:06:04.940Z,2.73
2018-12-27T15:08:31.951Z,2.87
2018-12-27T15:10:59.181Z,2.50
2018-12-27T15:13:26.411Z,2.70
2018-12-27T15:15:54.075Z,2.50
2018-12-27T15:18:21.292Z,2.40
2018-12-27T15:20:48.447Z,2.50
2018-12-27T15:23:15.436Z,2.40
2018-12-27T15:25:44.123Z,2.70
2018-12-27T15:28:11.194Z,2.60
2018-12-27T15:30:38.150Z,2.40
2018-12-27T15:33:05.982Z,2.60
2018-12-27T15:35:33.136Z,2.67
2018-12-27T15:38:00.797Z,2.40
2018-12-27T15:40:27.793Z,2.30
2018-12-27T15:42:54.695Z,2.97
2018-12-27T15:45:21.613Z,2.70
2018-12-27T15:47:49.254Z,2.90
2018-12-27T15:50:16.120Z,2.57
2018-12-27T15:52:43.787Z,2.83
2018-12-27T15:55:11.370Z,2.80
2018-12-27T15:57:38.643Z,2.70
2018-12-27T16:00:05.717Z,2.90
2018-12-27T16:02:33.261Z,2.70
2018-12-27T16:05:00.174Z,2.97
2018-12-27T16:07:27.964Z,2.80
2018-12-27T16:09:55.268Z,2.60
2018-12-27T16:12:22.855Z,2.40
2018-12-27T16:14:50.850Z,2.40
2018-12-27T16:17:17.766Z,2.27
2018-12-27T16:19:45.059Z,2.47
2018-12-27T16:22:11.784Z,2.47
2018-12-27T16:24:38.549Z,2.70
2018-12-27T16:27:05.482Z,2.60
2018-12-27T16:29:32.455Z,2.83
2018-12-27T16:31:59.571Z,2.60
2018-12-27T16:34:26.397Z,2.43
2018-12-27T16:36:53.636Z,2.60
2018-12-27T16:39:20.534Z,2.20
2018-12-27T16:41:47.726Z,2.70
2018-12-27T16:44:14.707Z,2.43
2018-12-27T16:46:41.674Z,2.63
2018-12-27T16:49:09.408Z,2.80
2018-12-27T16:51:36.218Z,3.03
2018-12-27T16:54:03.334Z,3.03
2018-12-27T16:56:30.205Z,2.80
2018-12-27T16:58:56.942Z,3.10
2018-12-27T17:01:24.625Z,3.37
2018-12-27T17:03:52.070Z,3.00
2018-12-27T17:06:19.027Z,2.87
2018-12-27T17:08:46.385Z,2.80
2018-12-27T17:11:13.026Z,2.97
2018-12-27T17:13:40.017Z,3.40
2018-12-27T17:16:07.601Z,3.60
2018-12-27T17:18:35.044Z,3.90
2018-12-27T17:21:02.530Z,4.50
2018-12-27T17:23:30.144Z,3.90
2018-12-27T17:25:57.780Z,3.93
2018-12-27T17:28:24.895Z,3.43
2018-12-27T17:30:51.895Z,3.57
2018-12-27T17:33:19.522Z,3.33
2018-12-27T17:35:46.579Z,3.27
2018-12-27T17:38:13.344Z,3.37
2018-12-27T17:40:40.078Z,3.60
2018-12-27T17:43:06.869Z,3.33
2018-12-27T17:45:34.452Z,3.83
2018-12-27T17:48:01.224Z,3.33
2018-12-27T17:50:28.022Z,3.80
2018-12-27T17:52:55.473Z,3.40
2018-12-27T17:55:22.221Z,3.63
2018-12-27T17:57:49.076Z,3.47
2018-12-27T18:00:16.532Z,3.60
2018-12-27T18:02:43.312Z,4.00
2018-12-27T18:05:10.085Z,3.43
2018-12-27T18:07:36.825Z,3.63
2018-12-27T18:10:03.602Z,3.60
2018-12-27T18:12:31.091Z,3.67
2018-12-27T18:14:57.831Z,3.53
2018-12-27T18:17:24.607Z,3.50
2018-12-27T18:19:51.346Z,3.30
2018-12-27T18:22:18.029Z,3.50
2018-12-27T18:24:45.056Z,3.47
2018-12-27T18:27:12.616Z,3.43
2018-12-27T18:29:39.608Z,3.40
2018-12-27T18:32:06.435Z,3.47
2018-12-27T18:34:33.159Z,3.40
2018-12-27T18:36:59.882Z,3.70
2018-12-27T18:39:27.398Z,3.27
2018-12-27T18:41:54.079Z,3.90
2018-12-27T18:44:20.858Z,2.93
2018-12-27T18:46:47.649Z,3.67
2018-12-27T18:49:20.514Z,3.50
2018-12-27T18:51:41.214Z,3.60
2018-12-27T18:54:07.972Z,3.30
2018-12-27T18:56:34.634Z,3.10
2018-12-27T18:59:01.692Z,4.03
2018-12-27T19:01:28.686Z,3.50
2018-12-27T19:03:55.501Z,3.40
2018-12-27T19:06:22.182Z,3.40
2018-12-27T19:08:48.916Z,3.60
2018-12-27T19:14:15.610Z,4.57
2018-12-27T19:16:43.054Z,4.10
2018-12-27T19:19:09.734Z,3.40
2018-12-27T19:21:36.903Z,4.13
2018-12-27T19:24:03.587Z,5.23
2018-12-27T19:26:31.025Z,6.37
2018-12-27T19:28:57.768Z,5.47
2018-12-27T19:31:25.253Z,4.83
2018-12-27T19:33:52.696Z,5.23
2018-12-27T19:36:19.454Z,3.97
2018-12-27T19:38:46.192Z,4.20
2018-12-27T19:41:13.569Z,4.07
2018-12-27T19:43:40.298Z,3.83
2018-12-27T19:46:07.017Z,3.97
2018-12-27T19:48:33.713Z,3.80
2018-12-27T19:51:00.433Z,3.73
2018-12-27T19:53:27.618Z,3.97
2018-12-27T19:55:54.346Z,3.73
2018-12-27T19:58:21.076Z,3.60
2018-12-27T20:00:47.801Z,3.77
2018-12-27T20:03:14.580Z,3.80
2018-12-27T20:05:41.866Z,3.20
2018-12-27T20:08:09.307Z,3.30
2018-12-27T20:10:36.076Z,3.47
2018-12-27T20:13:03.555Z,3.43
2018-12-27T20:15:30.238Z,4.27
2018-12-27T20:17:56.994Z,3.80
2018-12-27T20:20:23.676Z,3.60
2018-12-27T20:22:50.329Z,3.67
2018-12-27T20:25:17.045Z,3.83
2018-12-27T20:27:43.710Z,3.60
2018-12-27T20:30:10.414Z,3.70
2018-12-27T20:32:37.894Z,3.50
2018-12-27T20:35:04.620Z,3.60
2018-12-27T20:37:31.296Z,3.53
2018-12-27T20:39:58.041Z,3.77
2018-12-27T20:42:24.711Z,3.83
2018-12-27T20:44:51.407Z,3.60
2018-12-27T20:47:18.135Z,3.30
2018-12-27T20:49:44.811Z,3.60
2018-12-27T20:52:12.316Z,3.60
2018-12-27T20:54:39.108Z,4.00
2018-12-27T20:57:05.949Z,3.80
2018-12-27T20:59:32.698Z,3.80
2018-12-27T21:01:59.521Z,3.73
2018-12-27T21:04:26.198Z,4.30
2018-12-27T21:06:52.880Z,3.80
2018-12-27T21:09:19.780Z,3.63
2018-12-27T21:11:46.506Z,3.60
2018-12-27T21:14:13.534Z,3.53
2018-12-27T21:16:41.043Z,3.60
2018-12-27T21:19:07.753Z,3.90
2018-12-27T21:21:34.417Z,3.57
2018-12-27T21:24:01.268Z,3.73
2018-12-27T21:26:28.017Z,3.67
2018-12-27T21:28:54.715Z,3.53
2018-12-27T21:31:22.411Z,3.73
2018-12-27T21:33:49.836Z,3.70
2018-12-27T21:36:16.535Z,4.00
2018-12-27T21:38:43.611Z,3.70
2018-12-27T21:41:10.470Z,3.90
2018-12-27T21:43:37.300Z,3.90
2018-12-27T21:46:04.074Z,3.67
2018-12-27T21:48:30.828Z,4.10
2018-12-27T21:50:58.366Z,4.03
2018-12-27T21:53:25.896Z,4.20
2018-12-27T21:55:52.749Z,4.17
2018-12-27T21:58:19.437Z,4.20
2018-12-27T22:00:47.094Z,3.90
2018-12-27T22:03:14.179Z,4.03
2018-12-27T22:05:40.866Z,4.13
2018-12-27T22:08:08.384Z,3.90
2018-12-27T22:10:35.097Z,3.57
2018-12-27T22:13:01.982Z,4.30
2018-12-27T22:15:29.499Z,3.77
2018-12-27T22:17:56.494Z,3.93
2018-12-27T22:20:23.225Z,3.73
2018-12-27T22:22:50.047Z,4.40
2018-12-27T22:25:16.738Z,4.17
2018-12-27T22:27:43.459Z,4.30
2018-12-27T22:30:10.360Z,4.10
2018-12-27T22:32:37.049Z,4.10
2018-12-27T22:35:04.595Z,3.97
2018-12-27T22:37:31.346Z,3.97
2018-12-27T22:39:58.281Z,4.03
2018-12-27T22:42:24.988Z,3.90
2018-12-27T22:44:51.778Z,4.10
2018-12-27T22:47:18.487Z,4.03
2018-12-27T22:49:45.999Z,4.00
2018-12-27T22:52:12.730Z,3.93
2018-12-27T22:54:40.282Z,3.73
2018-12-27T22:57:08.175Z,4.10
2018-12-27T22:59:34.902Z,3.67
2018-12-27T23:02:02.397Z,3.97
2018-12-27T23:04:29.155Z,3.63
2018-12-27T23:06:55.882Z,3.60
2018-12-27T23:09:22.818Z,3.63
2018-12-27T23:11:49.516Z,3.80
2018-12-27T23:14:16.621Z,3.97
2018-12-27T23:16:43.795Z,3.70
2018-12-27T23:19:11.143Z,3.70
2018-12-27T23:21:38.249Z,3.60
2018-12-27T23:24:05.784Z,3.30
2018-12-27T23:26:32.848Z,3.50
2018-12-27T23:29:00.023Z,3.00
2018-12-27T23:31:28.141Z,3.53
2018-12-27T23:33:55.333Z,3.70
2018-12-27T23:36:22.431Z,3.50
2018-12-27T23:38:50.443Z,3.30
2018-12-27T23:41:18.202Z,3.67
2018-12-27T23:43:46.007Z,3.60
2018-12-27T23:46:14.006Z,3.67
2018-12-27T23:48:41.241Z,3.50
2018-12-27T23:51:08.440Z,3.07
2018-12-27T23:53:35.502Z,3.43
2018-12-27T23:56:02.598Z,3.73
2018-12-27T23:58:29.459Z,3.97
